createdAt,value
2019-03-26T00:01:57.512Z,7.40
2019-03-26T00:04:36.120Z,7.40
2019-03-26T00:07:07.189Z,7.40
2019-03-26T00:09:39.091Z,7.40
2019-03-26T00:12:10.290Z,7.40
2019-03-26T00:14:41.434Z,7.40
2019-03-26T00:17:20.388Z,7.50
2019-03-26T00:19:51.696Z,7.40
2019-03-26T00:22:21.520Z,7.50
2019-03-26T00:24:52.544Z,7.50
2019-03-26T00:27:28.798Z,7.50
2019-03-26T00:29:59.738Z,7.50
2019-03-26T00:32:29.624Z,7.50
2019-03-26T00:34:59.523Z,7.50
2019-03-26T00:37:29.490Z,7.50
2019-03-26T00:39:59.386Z,7.50
2019-03-26T00:42:29.286Z,7.50
2019-03-26T00:44:59.249Z,7.50
2019-03-26T00:47:29.109Z,7.40
2019-03-26T00:49:59.040Z,7.40
2019-03-26T00:52:28.978Z,7.50
2019-03-26T00:55:05.021Z,7.40
2019-03-26T00:57:34.907Z,7.40
2019-03-26T01:00:06.221Z,7.40
2019-03-26T01:02:37.191Z,7.40
2019-03-26T01:05:07.304Z,7.40
2019-03-26T01:07:39.227Z,7.40
2019-03-26T01:10:13.191Z,7.40
2019-03-26T01:12:43.028Z,7.40
2019-03-26T01:15:15.379Z,7.40
2019-03-26T01:17:47.433Z,7.40
2019-03-26T01:20:17.323Z,7.30
2019-03-26T01:22:47.215Z,7.30
2019-03-26T01:25:17.127Z,7.30
2019-03-26T01:27:47.054Z,7.30
2019-03-26T01:30:16.969Z,7.30
2019-03-26T01:32:46.835Z,7.30
2019-03-26T01:35:16.743Z,7.30
2019-03-26T01:37:46.728Z,7.30
2019-03-26T01:40:16.653Z,7.30
2019-03-26T01:42:46.515Z,7.30
2019-03-26T01:45:16.537Z,7.30
2019-03-26T01:47:48.496Z,7.20
2019-03-26T01:50:18.297Z,7.20
2019-03-26T01:52:49.941Z,7.20
2019-03-26T01:55:21.973Z,7.20
2019-03-26T01:57:51.728Z,7.20
2019-03-26T02:00:28.620Z,7.20
2019-03-26T02:02:58.594Z,7.20
2019-03-26T02:05:28.437Z,7.20
2019-03-26T02:07:58.394Z,7.20
2019-03-26T02:10:28.355Z,7.20
2019-03-26T02:12:59.481Z,7.20
2019-03-26T02:15:32.787Z,7.20
2019-03-26T02:18:04.889Z,7.20
2019-03-26T02:20:34.505Z,7.10
2019-03-26T02:23:04.477Z,7.10
2019-03-26T02:25:34.202Z,7.10
2019-03-26T02:28:04.704Z,7.20
2019-03-26T02:30:34.616Z,7.10
2019-03-26T02:33:05.066Z,7.20
2019-03-26T02:35:36.036Z,7.10
2019-03-26T02:38:05.976Z,7.20
2019-03-26T02:40:37.992Z,7.10
2019-03-26T02:43:07.848Z,7.10
2019-03-26T02:45:37.756Z,7.10
2019-03-26T02:48:07.827Z,7.10
2019-03-26T02:50:39.847Z,7.10
2019-03-26T02:53:09.955Z,7.00
2019-03-26T02:55:40.123Z,7.00
2019-03-26T02:59:16.046Z,7.00
2019-03-26T03:01:50.200Z,7.00
2019-03-26T03:04:20.864Z,7.00
2019-03-26T03:06:51.617Z,7.00
2019-03-26T03:09:21.601Z,7.00
2019-03-26T03:11:51.460Z,7.00
2019-03-26T03:14:21.366Z,6.90
2019-03-26T03:16:53.095Z,6.90
2019-03-26T03:19:28.636Z,6.90
2019-03-26T03:21:58.494Z,6.90
2019-03-26T03:24:34.370Z,6.90
2019-03-26T03:27:04.198Z,6.90
2019-03-26T03:29:34.008Z,6.90
2019-03-26T03:32:04.908Z,6.90
2019-03-26T03:34:37.914Z,6.90
2019-03-26T03:37:07.858Z,6.80
2019-03-26T03:39:37.812Z,6.80
2019-03-26T03:42:07.656Z,6.80
2019-03-26T03:44:37.549Z,6.80
2019-03-26T03:47:08.638Z,6.80
2019-03-26T03:49:47.795Z,6.80
2019-03-26T03:52:20.560Z,6.80
2019-03-26T03:54:51.229Z,6.70
2019-03-26T03:57:23.633Z,6.70
2019-03-26T03:59:53.552Z,6.70
2019-03-26T04:02:23.662Z,6.70
2019-03-26T04:04:53.713Z,6.70
2019-03-26T04:07:23.591Z,6.70
2019-03-26T04:09:53.583Z,6.70
2019-03-26T04:12:28.820Z,6.70
2019-03-26T04:14:58.735Z,6.70
2019-03-26T04:17:28.631Z,6.70
2019-03-26T04:19:58.572Z,6.60
2019-03-26T04:22:28.485Z,6.60
2019-03-26T04:25:14.121Z,6.50
2019-03-26T04:27:43.917Z,6.40
2019-03-26T04:30:25.042Z,6.30
2019-03-26T04:32:56.863Z,6.30
2019-03-26T04:35:47.246Z,6.20
2019-03-26T04:38:17.084Z,6.10
2019-03-26T04:41:05.063Z,6.00
2019-03-26T04:43:37.881Z,5.90
2019-03-26T04:46:08.943Z,5.80
2019-03-26T04:48:38.916Z,5.70
2019-03-26T04:51:08.776Z,5.70
2019-03-26T04:53:38.757Z,5.70
2019-03-26T04:56:08.648Z,5.60
2019-03-26T04:58:38.523Z,5.60
2019-03-26T05:01:08.436Z,5.50
2019-03-26T05:03:38.408Z,5.50
2019-03-26T05:06:08.333Z,5.40
2019-03-26T05:08:38.176Z,5.40
2019-03-26T05:11:08.182Z,5.30
2019-03-26T05:13:38.011Z,5.30
2019-03-26T05:16:16.977Z,5.20
2019-03-26T05:18:46.856Z,5.10
2019-03-26T05:21:25.221Z,5.20
2019-03-26T05:23:55.701Z,5.20
2019-03-26T05:26:25.628Z,5.10
2019-03-26T05:29:07.864Z,5.10
2019-03-26T05:31:37.806Z,5.20
2019-03-26T05:34:08.903Z,5.20
2019-03-26T05:36:50.682Z,5.20
2019-03-26T05:39:16.567Z,5.20
2019-03-26T05:41:46.418Z,5.20
2019-03-26T05:44:16.304Z,5.20
2019-03-26T05:46:46.325Z,5.20
2019-03-26T05:49:16.153Z,5.30
2019-03-26T05:51:46.091Z,5.30
2019-03-26T05:54:16.061Z,5.40
2019-03-26T05:56:45.924Z,5.40
2019-03-26T05:59:15.917Z,5.50
2019-03-26T06:01:45.872Z,5.60
2019-03-26T06:04:15.656Z,5.60
2019-03-26T06:06:45.611Z,5.70
2019-03-26T06:09:15.551Z,5.80
2019-03-26T06:11:46.668Z,5.80
2019-03-26T06:14:18.392Z,5.80
2019-03-26T06:16:51.132Z,5.90
2019-03-26T06:19:22.389Z,5.90
2019-03-26T06:21:53.412Z,5.90
2019-03-26T06:24:23.176Z,6.00
2019-03-26T06:26:53.127Z,6.00
2019-03-26T06:29:23.257Z,6.00
2019-03-26T06:31:55.510Z,6.10
2019-03-26T06:34:25.368Z,6.20
2019-03-26T06:36:55.350Z,6.20
2019-03-26T06:39:25.164Z,6.20
2019-03-26T06:41:55.341Z,6.30
2019-03-26T06:44:42.431Z,6.30
2019-03-26T06:47:15.344Z,6.30
2019-03-26T06:49:46.544Z,6.30
2019-03-26T06:52:16.494Z,6.40
2019-03-26T06:54:46.555Z,6.40
2019-03-26T06:57:39.307Z,6.40
2019-03-26T07:00:10.481Z,6.40
2019-03-26T07:02:43.320Z,6.40
2019-03-26T07:05:14.439Z,6.50
2019-03-26T07:08:17.491Z,6.40
2019-03-26T07:10:51.713Z,6.50
2019-03-26T07:13:25.642Z,6.70
2019-03-26T07:15:56.728Z,6.90
2019-03-26T07:18:33.893Z,7.00
2019-03-26T07:21:03.776Z,7.00
2019-03-26T07:23:33.655Z,7.10
2019-03-26T07:26:03.946Z,7.20
2019-03-26T07:28:36.293Z,7.20
2019-03-26T07:31:14.763Z,7.30
2019-03-26T07:33:55.368Z,7.30
2019-03-26T07:36:28.675Z,7.30
2019-03-26T07:39:15.807Z,7.30
2019-03-26T07:41:45.877Z,7.40
2019-03-26T07:44:20.979Z,7.50
2019-03-26T07:46:51.517Z,7.60
2019-03-26T07:49:31.519Z,7.60
2019-03-26T07:52:09.297Z,7.50
2019-03-26T07:54:56.581Z,7.60
2019-03-26T07:57:47.759Z,7.60
2019-03-26T08:00:55.996Z,7.60
2019-03-26T08:03:25.905Z,7.60
2019-03-26T08:05:56.005Z,7.90
2019-03-26T08:08:26.145Z,8.00
2019-03-26T08:10:57.306Z,8.20
2019-03-26T08:13:35.484Z,8.40
2019-03-26T08:16:06.309Z,8.60
2019-03-26T08:18:37.179Z,8.60
2019-03-26T08:21:07.129Z,8.70
2019-03-26T08:23:42.774Z,8.70
2019-03-26T08:26:21.063Z,8.70
2019-03-26T08:28:52.126Z,8.70
2019-03-26T08:31:31.559Z,8.70
2019-03-26T08:34:01.341Z,8.80
2019-03-26T08:36:31.189Z,8.70
2019-03-26T08:39:01.067Z,8.70
2019-03-26T08:41:30.975Z,8.80
2019-03-26T08:44:00.933Z,8.80
2019-03-26T08:46:30.828Z,8.80
2019-03-26T08:49:00.783Z,8.80
2019-03-26T08:51:30.701Z,8.80
2019-03-26T08:54:00.675Z,8.70
2019-03-26T08:56:36.725Z,8.70
2019-03-26T08:59:07.841Z,8.90
2019-03-26T09:01:37.675Z,9.00
2019-03-26T09:04:07.705Z,9.00
2019-03-26T09:06:38.798Z,9.00
2019-03-26T09:09:09.097Z,9.00
2019-03-26T09:11:39.158Z,9.00
2019-03-26T09:14:09.640Z,9.00
2019-03-26T09:16:39.674Z,9.00
2019-03-26T09:19:10.620Z,9.00
2019-03-26T09:21:41.623Z,9.00
2019-03-26T09:24:12.755Z,9.10
2019-03-26T09:26:43.078Z,9.30
2019-03-26T09:29:14.330Z,9.30
2019-03-26T09:31:44.589Z,9.40
2019-03-26T09:34:14.410Z,9.40
2019-03-26T09:36:46.341Z,9.30
2019-03-26T09:39:18.514Z,9.30
2019-03-26T09:41:49.600Z,9.30
2019-03-26T09:44:19.981Z,9.30
2019-03-26T09:46:52.745Z,9.20
2019-03-26T09:49:23.720Z,9.20
2019-03-26T09:51:53.634Z,9.20
2019-03-26T09:54:23.526Z,9.30
2019-03-26T09:56:53.446Z,9.40
2019-03-26T09:59:30.402Z,9.50
2019-03-26T10:02:04.835Z,9.60
2019-03-26T10:04:34.703Z,9.80
2019-03-26T10:07:04.695Z,9.90
2019-03-26T10:09:35.774Z,10.00
2019-03-26T10:12:06.408Z,10.20
2019-03-26T10:14:36.573Z,10.20
2019-03-26T10:17:08.764Z,10.10
2019-03-26T10:19:38.872Z,10.00
2019-03-26T10:22:11.120Z,10.00
2019-03-26T10:24:40.928Z,10.00
2019-03-26T10:27:11.822Z,10.10
2019-03-26T10:29:43.700Z,9.90
2019-03-26T10:32:13.538Z,9.90
2019-03-26T10:34:43.490Z,10.00
2019-03-26T10:37:13.412Z,10.10
2019-03-26T10:39:43.335Z,10.00
2019-03-26T10:42:15.472Z,10.00
2019-03-26T10:44:52.302Z,10.10
2019-03-26T10:47:30.013Z,10.00
2019-03-26T10:50:08.857Z,10.00
2019-03-26T10:52:57.564Z,10.20
2019-03-26T10:55:27.554Z,10.10
2019-03-26T10:57:57.462Z,9.90
2019-03-26T11:00:27.551Z,10.00
2019-03-26T11:02:58.453Z,10.20
2019-03-26T11:05:28.901Z,10.30
2019-03-26T11:07:59.107Z,10.30
2019-03-26T11:10:28.954Z,10.20
2019-03-26T11:13:02.745Z,10.30
2019-03-26T11:15:33.797Z,10.30
2019-03-26T11:18:05.160Z,10.20
2019-03-26T11:20:35.243Z,9.90
2019-03-26T11:23:05.311Z,9.90
2019-03-26T11:25:35.566Z,9.90
2019-03-26T11:28:06.053Z,10.00
2019-03-26T11:30:44.041Z,10.00
2019-03-26T11:33:15.181Z,10.00
2019-03-26T11:35:51.265Z,10.00
2019-03-26T11:38:21.224Z,10.00
2019-03-26T11:41:00.369Z,10.00
2019-03-26T11:43:30.417Z,10.00
2019-03-26T11:46:01.541Z,10.10
2019-03-26T11:48:37.609Z,10.10
2019-03-26T11:51:09.598Z,10.30
2019-03-26T11:53:45.691Z,10.30
2019-03-26T11:56:28.129Z,10.20
2019-03-26T11:59:03.809Z,10.10
2019-03-26T12:01:34.907Z,9.90
2019-03-26T12:04:11.856Z,9.80
2019-03-26T12:06:45.928Z,9.80
2019-03-26T12:09:21.193Z,9.80
2019-03-26T12:11:57.522Z,9.80
2019-03-26T12:18:10.146Z,9.70
2019-03-26T12:36:39.403Z,10.00
2019-03-26T12:39:14.193Z,10.00
2019-03-26T12:41:55.374Z,10.00
2019-03-26T12:44:42.604Z,9.90
2019-03-26T12:48:17.585Z,9.70
2019-03-26T12:51:58.922Z,9.60
2019-03-26T12:54:54.633Z,9.40
2019-03-26T13:02:05.026Z,9.40
2019-03-26T13:12:29.715Z,9.60
2019-03-26T13:15:30.559Z,9.50
2019-03-26T13:18:00.604Z,9.40
2019-03-26T13:21:46.614Z,9.40
2019-03-26T13:59:14.246Z,10.40
2019-03-26T14:01:49.840Z,10.40
2019-03-26T14:04:20.826Z,10.30
2019-03-26T14:06:52.579Z,10.30
2019-03-26T14:09:22.358Z,10.20
2019-03-26T14:11:57.504Z,10.40
2019-03-26T14:14:25.794Z,10.60
2019-03-26T14:16:57.852Z,10.80
2019-03-26T14:19:27.718Z,11.00
2019-03-26T14:21:59.680Z,10.80
2019-03-26T14:24:29.717Z,10.70
2019-03-26T14:27:14.652Z,10.80
2019-03-26T14:29:44.652Z,10.70
2019-03-26T14:32:14.498Z,10.70
2019-03-26T14:34:48.168Z,10.70
2019-03-26T14:37:21.352Z,10.70
2019-03-26T14:40:00.352Z,10.80
2019-03-26T14:42:33.478Z,10.70
2019-03-26T14:45:05.459Z,10.80
2019-03-26T14:47:35.309Z,10.80
2019-03-26T14:50:06.988Z,10.90
2019-03-26T14:52:42.935Z,10.80
2019-03-26T14:55:12.966Z,10.80
2019-03-26T14:57:51.834Z,10.80
2019-03-26T15:00:21.660Z,10.70
2019-03-26T15:02:51.603Z,10.70
2019-03-26T15:05:21.543Z,10.70
2019-03-26T15:07:51.469Z,10.60
2019-03-26T15:10:23.400Z,10.50
2019-03-26T15:12:54.952Z,10.50
2019-03-26T15:15:24.901Z,10.40
2019-03-26T15:17:54.946Z,10.40
2019-03-26T15:20:37.753Z,10.40
2019-03-26T15:23:08.572Z,10.30
2019-03-26T15:25:38.414Z,10.30
2019-03-26T15:28:11.559Z,10.30
2019-03-26T15:30:47.238Z,10.30
2019-03-26T15:33:17.380Z,10.30
2019-03-26T15:35:47.483Z,10.30
2019-03-26T15:38:19.641Z,10.20
2019-03-26T15:40:49.823Z,10.20
2019-03-26T15:43:40.191Z,10.20
2019-03-26T15:46:11.131Z,10.20
2019-03-26T15:48:49.837Z,10.20
2019-03-26T15:51:22.658Z,10.30
2019-03-26T15:53:52.972Z,10.40
2019-03-26T15:56:22.919Z,10.50
2019-03-26T15:58:53.001Z,10.50
2019-03-26T16:01:28.892Z,10.40
2019-03-26T16:04:00.858Z,10.50
2019-03-26T16:06:30.747Z,10.50
2019-03-26T16:09:01.275Z,10.50
2019-03-26T16:11:35.991Z,10.50
2019-03-26T16:14:03.039Z,10.50
2019-03-26T16:16:32.998Z,10.50
2019-03-26T16:19:05.095Z,10.40
2019-03-26T16:21:45.956Z,10.40
2019-03-26T16:24:16.287Z,10.30
2019-03-26T16:26:47.337Z,10.30
2019-03-26T16:29:17.338Z,10.30
2019-03-26T16:31:48.834Z,10.30
2019-03-26T16:34:18.724Z,10.20
2019-03-26T16:36:58.789Z,10.20
2019-03-26T16:39:20.298Z,10.20
2019-03-26T16:41:59.154Z,10.20
2019-03-26T16:44:29.386Z,10.10
2019-03-26T16:46:59.441Z,10.10
2019-03-26T16:49:31.477Z,10.10
2019-03-26T16:52:11.516Z,10.10
2019-03-26T16:55:14.992Z,10.10
2019-03-26T16:58:07.451Z,10.10
2019-03-26T17:00:38.444Z,10.10
2019-03-26T17:03:08.675Z,10.00
2019-03-26T17:05:40.876Z,10.00
2019-03-26T17:08:11.352Z,9.90
2019-03-26T17:10:42.803Z,9.90
2019-03-26T17:13:25.691Z,9.90
2019-03-26T17:15:57.806Z,9.80
2019-03-26T17:18:34.413Z,9.80
2019-03-26T17:21:18.382Z,9.70
2019-03-26T17:23:54.893Z,9.70
2019-03-26T17:26:25.670Z,9.60
2019-03-26T17:29:06.003Z,9.60
2019-03-26T17:31:36.515Z,9.50
2019-03-26T17:34:06.434Z,9.50
2019-03-26T17:36:37.923Z,9.50
2019-03-26T17:39:17.656Z,9.50
2019-03-26T17:41:54.630Z,9.50
2019-03-26T17:44:51.179Z,9.50
2019-03-26T17:47:24.273Z,9.40
2019-03-26T17:50:04.072Z,9.50
2019-03-26T17:52:36.139Z,9.40
2019-03-26T17:55:06.739Z,9.40
2019-03-26T17:57:41.572Z,9.40
2019-03-26T18:00:17.907Z,9.30
2019-03-26T18:02:48.111Z,9.30
2019-03-26T18:05:28.465Z,9.30
2019-03-26T18:07:58.800Z,9.20
2019-03-26T18:10:28.829Z,9.20
2019-03-26T18:12:58.789Z,9.10
2019-03-26T18:15:30.022Z,9.10
2019-03-26T18:18:06.012Z,9.00
2019-03-26T18:20:35.912Z,9.00
2019-03-26T18:23:08.886Z,8.90
2019-03-26T18:25:39.009Z,8.90
2019-03-26T18:28:10.608Z,8.80
2019-03-26T18:30:42.524Z,8.80
2019-03-26T18:33:12.401Z,8.80
2019-03-26T18:35:42.352Z,8.70
2019-03-26T18:38:14.849Z,8.70
2019-03-26T18:40:44.910Z,8.70
2019-03-26T18:43:15.974Z,8.70
2019-03-26T18:45:49.206Z,8.70
2019-03-26T18:48:25.006Z,8.70
2019-03-26T18:50:56.119Z,8.70
2019-03-26T18:53:26.098Z,8.70
2019-03-26T18:56:07.395Z,8.70
2019-03-26T18:58:37.334Z,8.70
2019-03-26T19:01:07.352Z,8.70
2019-03-26T19:03:38.531Z,8.70
2019-03-26T19:06:10.437Z,8.70
2019-03-26T19:08:40.250Z,8.60
2019-03-26T19:11:11.541Z,8.60
2019-03-26T19:13:46.634Z,8.60
2019-03-26T19:16:22.369Z,8.60
2019-03-26T19:18:57.210Z,8.60
2019-03-26T19:21:27.111Z,8.50
2019-03-26T19:24:12.228Z,8.60
2019-03-26T19:26:44.946Z,8.50
2019-03-26T19:29:29.515Z,8.50
2019-03-26T19:32:03.688Z,8.50
2019-03-26T19:34:36.779Z,8.50
2019-03-26T19:37:11.619Z,8.50
2019-03-26T19:39:51.243Z,8.50
2019-03-26T19:42:21.035Z,8.50
2019-03-26T19:44:54.853Z,8.40
2019-03-26T19:47:24.918Z,8.50
2019-03-26T19:49:54.715Z,8.50
2019-03-26T19:52:24.601Z,8.40
2019-03-26T19:54:56.731Z,8.40
2019-03-26T19:57:27.672Z,8.30
2019-03-26T19:59:59.233Z,8.30
2019-03-26T20:02:39.309Z,8.30
2019-03-26T20:05:14.565Z,8.30
2019-03-26T20:07:44.571Z,8.30
2019-03-26T20:10:22.832Z,8.20
2019-03-26T20:13:02.139Z,8.20
2019-03-26T20:15:32.091Z,8.20
2019-03-26T20:18:04.034Z,8.20
2019-03-26T20:20:37.159Z,8.20
2019-03-26T20:23:08.267Z,8.20
2019-03-26T20:25:38.408Z,8.20
2019-03-26T20:28:15.999Z,8.20
2019-03-26T20:30:52.946Z,8.20
2019-03-26T20:33:25.703Z,8.20
2019-03-26T20:35:56.741Z,8.20
2019-03-26T20:38:27.858Z,8.20
2019-03-26T20:41:02.916Z,8.20
2019-03-26T20:43:37.540Z,8.10
2019-03-26T20:46:11.240Z,8.10
2019-03-26T20:48:58.372Z,8.10
2019-03-26T20:51:29.847Z,8.20
2019-03-26T20:54:19.313Z,8.10
2019-03-26T20:56:50.268Z,8.10
2019-03-26T20:59:22.708Z,8.10
2019-03-26T21:01:59.846Z,8.10
2019-03-26T21:04:33.088Z,8.10
2019-03-26T21:07:08.249Z,8.00
2019-03-26T21:09:42.860Z,8.10
2019-03-26T21:12:20.756Z,8.10
2019-03-26T21:14:54.990Z,8.10
2019-03-26T21:17:26.106Z,8.10
2019-03-26T21:19:59.927Z,8.10
2019-03-26T21:22:31.181Z,8.10
2019-03-26T21:25:09.407Z,8.10
2019-03-26T21:27:41.656Z,8.10
2019-03-26T21:30:21.930Z,8.10
2019-03-26T21:32:53.489Z,8.10
2019-03-26T21:35:24.439Z,8.10
2019-03-26T21:38:10.390Z,8.10
2019-03-26T21:40:40.723Z,8.00
2019-03-26T21:43:10.583Z,8.00
2019-03-26T21:45:41.194Z,8.00
2019-03-26T21:48:11.381Z,8.00
2019-03-26T21:50:48.957Z,8.00
2019-03-26T21:53:21.246Z,8.00
2019-03-26T21:55:51.251Z,7.90
2019-03-26T21:58:25.209Z,7.90
2019-03-26T22:00:55.198Z,7.90
2019-03-26T22:03:26.329Z,7.90
2019-03-26T22:06:02.701Z,7.90
2019-03-26T22:08:35.493Z,7.90
2019-03-26T22:11:26.984Z,7.90
2019-03-26T22:13:59.163Z,7.90
2019-03-26T22:16:36.023Z,7.90
2019-03-26T22:19:27.762Z,7.90
2019-03-26T22:21:48.998Z,7.80
2019-03-26T22:24:27.000Z,7.90
2019-03-26T22:26:57.023Z,7.80
2019-03-26T22:29:31.037Z,7.80
2019-03-26T22:32:06.766Z,7.80
2019-03-26T22:34:36.911Z,7.80
2019-03-26T22:37:18.016Z,7.80
2019-03-26T22:39:49.863Z,7.80
2019-03-26T22:42:19.749Z,7.80
2019-03-26T22:45:04.675Z,7.70
2019-03-26T22:47:41.297Z,7.70
2019-03-26T22:50:13.825Z,7.70
2019-03-26T22:52:45.700Z,7.70
2019-03-26T22:55:15.618Z,7.70
2019-03-26T22:57:49.205Z,7.60
2019-03-26T23:00:21.109Z,7.70
2019-03-26T23:02:51.127Z,7.60
2019-03-26T23:05:21.025Z,7.60
2019-03-26T23:07:53.364Z,7.60
2019-03-26T23:10:23.290Z,7.60
2019-03-26T23:13:05.504Z,7.60
2019-03-26T23:15:35.396Z,7.60
2019-03-26T23:18:06.185Z,7.60
2019-03-26T23:20:42.321Z,7.50
2019-03-26T23:23:19.022Z,7.50
2019-03-26T23:25:48.988Z,7.50
2019-03-26T23:28:18.913Z,7.50
2019-03-26T23:30:55.001Z,7.50
2019-03-26T23:33:28.205Z,7.60
2019-03-26T23:35:59.310Z,7.50
2019-03-26T23:38:31.292Z,7.40
2019-03-26T23:41:01.183Z,7.40
2019-03-26T23:43:34.450Z,7.30
2019-03-26T23:46:07.412Z,7.30
2019-03-26T23:48:37.496Z,7.20
2019-03-26T23:51:09.396Z,7.20
2019-03-26T23:53:40.076Z,7.20
2019-03-26T23:56:10.975Z,7.20
2019-03-26T23:58:44.121Z,7.20
